createdAt,value
2022-10-20T00:01:27.249Z,9.30
2022-10-20T00:03:55.931Z,9.03
2022-10-20T00:06:26.921Z,9.23
2022-10-20T00:08:56.332Z,8.97
2022-10-20T00:11:24.880Z,9.70
2022-10-20T00:13:57.302Z,10.07
2022-10-20T00:16:26.941Z,9.50
2022-10-20T00:18:58.741Z,9.30
2022-10-20T00:21:27.840Z,9.27
2022-10-20T00:23:56.176Z,9.60
2022-10-20T00:26:27.748Z,9.30
2022-10-20T00:28:57.520Z,9.67
2022-10-20T00:31:26.103Z,9.27
2022-10-20T00:33:54.218Z,9.37
2022-10-20T00:36:23.770Z,9.47
2022-10-20T00:38:56.049Z,8.40
2022-10-20T00:41:23.635Z,8.63
2022-10-20T00:43:59.742Z,8.53
2022-10-20T00:46:36.765Z,8.33
2022-10-20T00:49:25.885Z,8.50
2022-10-20T00:51:56.954Z,8.67
2022-10-20T00:54:27.281Z,8.13
2022-10-20T00:56:56.382Z,7.63
2022-10-20T00:59:29.834Z,7.80
2022-10-20T01:02:02.373Z,8.43
2022-10-20T01:04:31.676Z,7.60
2022-10-20T01:06:59.527Z,7.80
2022-10-20T01:09:30.783Z,7.63
2022-10-20T01:12:16.903Z,7.07
2022-10-20T01:14:59.571Z,7.33
2022-10-20T01:17:41.912Z,7.43
2022-10-20T01:20:19.057Z,7.00
2022-10-20T01:23:01.660Z,6.90
2022-10-20T01:26:09.059Z,7.47
2022-10-20T01:29:07.006Z,6.87
2022-10-20T01:32:12.749Z,7.03
2022-10-20T01:35:06.440Z,6.90
2022-10-20T01:37:49.687Z,7.60
2022-10-20T01:40:28.786Z,6.67
2022-10-20T01:43:01.345Z,7.10
2022-10-20T01:45:32.704Z,6.67
2022-10-20T01:48:04.318Z,6.53
2022-10-20T01:50:34.556Z,6.73
2022-10-20T01:53:02.779Z,6.40
2022-10-20T01:55:31.194Z,7.03
2022-10-20T01:58:33.063Z,6.53
2022-10-20T02:01:14.483Z,6.90
2022-10-20T02:03:57.916Z,6.60
2022-10-20T02:07:02.384Z,6.17
2022-10-20T02:09:36.380Z,6.90
2022-10-20T02:12:16.828Z,6.53
2022-10-20T02:14:45.484Z,6.37
2022-10-20T02:17:16.561Z,7.00
2022-10-20T02:19:45.957Z,7.00
2022-10-20T02:22:15.083Z,6.20
2022-10-20T02:24:44.241Z,7.20
2022-10-20T02:27:27.129Z,6.53
2022-10-20T02:30:05.405Z,7.00
2022-10-20T02:32:35.638Z,6.30
2022-10-20T02:35:06.917Z,6.33
2022-10-20T02:37:34.917Z,6.63
2022-10-20T02:40:03.936Z,6.30
2022-10-20T02:42:31.484Z,6.50
2022-10-20T02:44:59.047Z,6.17
2022-10-20T02:47:26.594Z,6.60
2022-10-20T02:49:59.748Z,6.73
2022-10-20T02:52:27.697Z,6.50
2022-10-20T02:54:55.660Z,7.20
2022-10-20T02:57:23.197Z,6.53
2022-10-20T02:59:54.218Z,6.77
2022-10-20T03:02:24.405Z,6.70
2022-10-20T03:04:54.981Z,6.63
2022-10-20T03:07:22.534Z,6.93
2022-10-20T03:09:50.156Z,6.70
2022-10-20T03:12:17.671Z,7.50
2022-10-20T03:14:45.469Z,7.00
2022-10-20T03:17:13.028Z,6.63
2022-10-20T03:19:41.339Z,6.53
2022-10-20T03:22:09.019Z,6.53
2022-10-20T03:24:36.609Z,6.53
2022-10-20T03:27:04.390Z,6.93
2022-10-20T03:29:32.109Z,6.83
2022-10-20T03:31:59.696Z,7.17
2022-10-20T03:34:27.289Z,6.57
2022-10-20T03:36:54.934Z,6.80
2022-10-20T03:39:22.520Z,6.90
2022-10-20T03:41:50.114Z,7.23
2022-10-20T03:44:17.727Z,7.30
2022-10-20T03:46:45.328Z,6.20
2022-10-20T03:49:12.927Z,6.70
2022-10-20T03:51:40.506Z,6.40
2022-10-20T03:54:08.168Z,6.90
2022-10-20T03:56:35.837Z,6.67
2022-10-20T03:59:11.482Z,6.30
2022-10-20T04:01:42.820Z,6.80
2022-10-20T04:04:10.817Z,6.83
2022-10-20T04:06:38.600Z,6.30
2022-10-20T04:09:08.207Z,7.47
2022-10-20T04:11:35.889Z,6.47
2022-10-20T04:14:03.480Z,7.27
2022-10-20T04:16:31.059Z,7.10
2022-10-20T04:19:24.481Z,7.10
2022-10-20T04:21:52.078Z,6.83
2022-10-20T04:24:19.680Z,6.77
2022-10-20T04:29:21.239Z,6.60
2022-10-20T04:31:49.290Z,6.50
2022-10-20T04:34:17.057Z,7.23
2022-10-20T04:36:44.644Z,7.00
2022-10-20T04:39:12.380Z,6.73
2022-10-20T04:41:39.998Z,7.73
2022-10-20T04:44:07.553Z,7.20
2022-10-20T04:46:35.202Z,7.00
2022-10-20T04:49:02.818Z,7.07
2022-10-20T04:51:30.446Z,7.37
2022-10-20T04:53:58.544Z,7.17
2022-10-20T04:56:27.042Z,7.77
2022-10-20T04:58:58.954Z,7.33
2022-10-20T05:01:28.724Z,9.53
2022-10-20T05:03:59.998Z,7.77
2022-10-20T05:06:32.352Z,8.23
2022-10-20T05:09:03.970Z,7.00
2022-10-20T05:11:36.433Z,7.20
2022-10-20T05:14:04.473Z,7.53
2022-10-20T05:16:32.057Z,7.47
2022-10-20T05:18:59.742Z,8.30
2022-10-20T05:21:29.715Z,7.93
2022-10-20T05:24:01.946Z,8.13
2022-10-20T05:26:34.456Z,8.47
2022-10-20T05:29:06.961Z,7.77
2022-10-20T05:31:39.865Z,7.70
2022-10-20T05:34:08.003Z,7.63
2022-10-20T05:36:35.817Z,8.13
2022-10-20T05:39:03.726Z,7.73
2022-10-20T05:41:36.415Z,8.13
2022-10-20T05:44:08.798Z,8.10
2022-10-20T05:46:41.868Z,8.57
2022-10-20T05:49:17.421Z,8.53
2022-10-20T05:51:46.538Z,8.10
2022-10-20T05:54:15.020Z,8.23
2022-10-20T05:56:43.034Z,8.23
2022-10-20T05:59:11.929Z,7.50
2022-10-20T06:01:47.619Z,8.33
2022-10-20T06:04:23.457Z,8.30
2022-10-20T06:07:07.132Z,8.33
2022-10-20T06:09:35.745Z,8.10
2022-10-20T06:12:04.025Z,8.40
2022-10-20T06:14:31.739Z,7.97
2022-10-20T06:17:04.640Z,8.23
2022-10-20T06:19:32.314Z,7.97
2022-10-20T06:22:05.459Z,7.89
2022-10-20T06:24:34.643Z,8.07
2022-10-20T06:27:02.375Z,8.67
2022-10-20T06:29:29.945Z,8.47
2022-10-20T06:31:57.648Z,8.07
2022-10-20T06:34:26.185Z,7.57
2022-10-20T06:36:53.869Z,7.53
2022-10-20T06:39:23.736Z,8.07
2022-10-20T06:41:53.791Z,7.70
2022-10-20T06:44:23.684Z,7.57
2022-10-20T06:46:54.811Z,8.23
2022-10-20T06:49:22.908Z,7.80
2022-10-20T06:51:50.646Z,7.77
2022-10-20T06:54:20.572Z,7.70
2022-10-20T06:56:48.120Z,8.67
2022-10-20T06:59:15.681Z,8.73
2022-10-20T07:01:43.315Z,8.20
2022-10-20T07:04:14.865Z,7.57
2022-10-20T07:06:44.138Z,8.30
2022-10-20T07:09:14.586Z,8.87
2022-10-20T07:11:42.546Z,8.03
2022-10-20T07:14:12.772Z,7.93
2022-10-20T07:16:40.475Z,8.17
2022-10-20T07:19:08.118Z,8.10
2022-10-20T07:21:39.211Z,7.97
2022-10-20T07:24:09.867Z,8.17
2022-10-20T07:26:39.913Z,8.40
2022-10-20T07:29:11.334Z,9.03
2022-10-20T07:31:44.242Z,8.53
2022-10-20T07:34:24.426Z,9.43
2022-10-20T07:36:56.912Z,9.07
2022-10-20T07:39:24.763Z,8.90
2022-10-20T07:41:52.369Z,9.00
2022-10-20T07:44:20.243Z,8.80
2022-10-20T07:46:50.950Z,8.97
2022-10-20T07:49:43.501Z,9.43
2022-10-20T07:52:06.427Z,9.20
2022-10-20T07:54:37.465Z,9.40
2022-10-20T07:57:05.127Z,9.50
2022-10-20T07:59:32.839Z,9.67
2022-10-20T08:02:00.658Z,10.03
2022-10-20T08:04:28.911Z,9.53
2022-10-20T08:06:56.561Z,9.70
2022-10-20T08:09:24.240Z,9.23
2022-10-20T08:11:55.296Z,9.73
2022-10-20T08:14:27.012Z,9.87
2022-10-20T08:16:55.108Z,8.97
2022-10-20T08:19:25.532Z,9.70
2022-10-20T08:21:53.090Z,10.57
2022-10-20T08:24:21.005Z,10.23
2022-10-20T08:26:48.537Z,9.33
2022-10-20T08:29:16.177Z,9.90
2022-10-20T08:31:44.615Z,9.33
2022-10-20T08:34:12.403Z,10.63
2022-10-20T08:36:40.040Z,10.93
2022-10-20T08:39:07.680Z,11.20
2022-10-20T08:42:06.224Z,11.13
2022-10-20T08:44:34.419Z,10.53
2022-10-20T08:47:05.303Z,10.67
2022-10-20T08:49:35.097Z,10.17
2022-10-20T08:52:03.485Z,10.90
2022-10-20T08:54:34.217Z,10.80
2022-10-20T08:57:01.908Z,10.50
2022-10-20T08:59:34.633Z,10.63
2022-10-20T09:02:07.130Z,10.43
2022-10-20T09:07:24.678Z,10.40
2022-10-20T09:09:54.750Z,11.23
2022-10-20T09:12:25.438Z,11.53
2022-10-20T09:14:55.608Z,11.13
2022-10-20T09:17:23.296Z,11.23
2022-10-20T09:19:56.187Z,11.33
2022-10-20T09:22:30.840Z,11.87
2022-10-20T09:25:00.969Z,12.07
2022-10-20T09:27:39.904Z,10.33
2022-10-20T09:30:35.227Z,10.73
2022-10-20T09:33:21.633Z,10.53
2022-10-20T09:35:52.637Z,11.70
2022-10-20T09:38:24.999Z,11.63
2022-10-20T09:40:58.131Z,10.83
2022-10-20T09:43:26.742Z,11.47
2022-10-20T09:45:58.573Z,11.43
2022-10-20T09:48:31.645Z,12.00
2022-10-20T09:51:00.289Z,11.60
2022-10-20T09:53:32.510Z,12.20
2022-10-20T09:56:00.409Z,11.57
2022-10-20T09:58:30.737Z,10.90
2022-10-20T10:01:12.853Z,11.20
2022-10-20T10:03:47.116Z,11.53
2022-10-20T10:06:38.732Z,11.87
2022-10-20T10:09:26.094Z,13.70
2022-10-20T10:12:13.040Z,12.53
2022-10-20T10:15:04.187Z,13.17
2022-10-20T10:17:43.330Z,12.57
2022-10-20T10:20:13.674Z,12.93
2022-10-20T10:22:42.050Z,12.57
2022-10-20T10:25:27.174Z,12.47
2022-10-20T10:28:20.942Z,12.03
2022-10-20T10:30:50.169Z,12.20
2022-10-20T10:33:31.163Z,13.13
2022-10-20T10:36:02.404Z,12.53
2022-10-20T10:38:30.148Z,12.33
2022-10-20T10:41:03.525Z,12.67
2022-10-20T10:43:52.404Z,12.03
2022-10-20T10:46:26.173Z,13.13
2022-10-20T10:49:22.659Z,12.90
2022-10-20T10:52:18.986Z,12.77
2022-10-20T10:54:57.141Z,12.73
2022-10-20T10:57:50.567Z,13.33
2022-10-20T11:00:31.225Z,11.97
2022-10-20T11:03:05.224Z,12.47
2022-10-20T11:05:54.057Z,12.70
2022-10-20T11:08:36.884Z,12.70
2022-10-20T11:11:22.426Z,11.87
2022-10-20T11:14:15.477Z,12.97
2022-10-20T11:16:53.932Z,13.00
2022-10-20T11:19:48.808Z,13.50
2022-10-20T11:22:50.714Z,12.40
2022-10-20T11:25:52.653Z,13.10
2022-10-20T11:28:31.993Z,13.23
2022-10-20T11:31:00.453Z,13.93
2022-10-20T11:33:45.964Z,13.53
2022-10-20T11:36:24.039Z,14.77
2022-10-20T11:38:54.811Z,14.47
2022-10-20T11:41:29.821Z,15.20
2022-10-20T11:44:16.139Z,14.37
2022-10-20T11:46:46.874Z,15.30
2022-10-20T11:49:14.659Z,14.87
2022-10-20T11:52:12.413Z,14.77
2022-10-20T11:54:39.988Z,14.13
2022-10-20T11:57:29.530Z,14.50
2022-10-20T12:00:03.754Z,15.57
2022-10-20T12:02:40.597Z,14.63
2022-10-20T12:05:19.802Z,14.20
2022-10-20T12:08:00.852Z,14.53
2022-10-20T12:11:14.968Z,14.23
2022-10-20T12:14:21.809Z,13.33
2022-10-20T12:16:55.088Z,14.00
2022-10-20T12:19:36.270Z,14.33
2022-10-20T12:22:29.899Z,14.10
2022-10-20T12:24:57.537Z,14.00
2022-10-20T12:27:29.502Z,15.07
2022-10-20T12:30:03.241Z,14.83
2022-10-20T12:32:36.956Z,14.83
2022-10-20T12:35:11.859Z,14.57
2022-10-20T12:37:42.254Z,14.97
2022-10-20T12:40:12.414Z,15.87
2022-10-20T12:42:47.846Z,15.40
2022-10-20T12:45:18.432Z,16.17
2022-10-20T12:47:53.905Z,15.53
2022-10-20T12:50:33.840Z,14.93
2022-10-20T12:53:24.242Z,14.77
2022-10-20T12:56:10.418Z,16.03
2022-10-20T12:59:00.494Z,15.30
2022-10-20T13:01:28.935Z,15.33
2022-10-20T13:03:56.614Z,15.50
2022-10-20T13:06:24.268Z,15.20
2022-10-20T13:09:04.449Z,16.53
2022-10-20T13:11:41.089Z,15.60
2022-10-20T13:14:45.519Z,15.97
2022-10-20T13:17:20.201Z,15.50
2022-10-20T13:19:50.702Z,15.87
2022-10-20T13:22:33.520Z,16.13
2022-10-20T13:25:03.937Z,15.80
2022-10-20T13:27:32.141Z,16.50
2022-10-20T13:29:59.933Z,16.87
2022-10-20T13:32:47.845Z,16.20
2022-10-20T13:36:12.800Z,17.07
2022-10-20T13:39:06.864Z,16.40
2022-10-20T13:41:49.579Z,17.03
2022-10-20T13:44:31.239Z,17.07
2022-10-20T13:47:31.000Z,15.80
2022-10-20T13:50:12.497Z,16.87
2022-10-20T13:52:48.657Z,17.67
2022-10-20T13:55:39.287Z,18.27
2022-10-20T13:58:17.567Z,18.23
2022-10-20T14:01:01.974Z,17.90
2022-10-20T14:03:32.614Z,18.37
2022-10-20T14:06:00.379Z,18.60
2022-10-20T14:08:28.175Z,18.70
2022-10-20T14:10:57.599Z,18.47
2022-10-20T14:13:31.760Z,18.50
2022-10-20T14:16:01.836Z,19.23
2022-10-20T14:18:32.770Z,19.27
2022-10-20T14:21:03.415Z,19.53
2022-10-20T14:23:42.010Z,21.17
2022-10-20T14:26:20.112Z,20.53
2022-10-20T14:28:49.762Z,20.83
2022-10-20T14:31:21.811Z,21.07
2022-10-20T14:33:51.414Z,20.30
2022-10-20T14:36:20.046Z,21.50
2022-10-20T14:38:49.931Z,21.10
2022-10-20T14:41:30.265Z,21.57
2022-10-20T14:44:06.090Z,21.40
2022-10-20T14:46:44.424Z,20.83
2022-10-20T14:49:28.235Z,23.20
2022-10-20T14:52:21.738Z,21.60
2022-10-20T14:54:55.290Z,22.20
2022-10-20T14:57:33.189Z,22.90
2022-10-20T15:00:25.538Z,21.13
2022-10-20T15:03:00.282Z,28.40
2022-10-20T15:05:30.672Z,22.20
2022-10-20T15:08:07.123Z,26.03
2022-10-20T15:10:37.490Z,23.60
2022-10-20T15:13:05.255Z,24.40
2022-10-20T15:15:39.283Z,21.77
2022-10-20T15:18:06.857Z,22.17
2022-10-20T15:20:39.476Z,21.83
2022-10-20T15:23:21.683Z,22.47
2022-10-20T15:26:10.421Z,24.40
2022-10-20T15:28:41.338Z,22.57
2022-10-20T15:31:23.595Z,23.27
2022-10-20T15:33:52.593Z,23.03
2022-10-20T15:36:28.938Z,23.60
2022-10-20T15:38:58.066Z,23.70
2022-10-20T15:41:30.538Z,24.07
2022-10-20T15:44:24.642Z,23.13
2022-10-20T15:46:55.673Z,23.60
2022-10-20T15:49:23.819Z,27.17
2022-10-20T15:51:51.527Z,26.67
2022-10-20T15:54:21.941Z,24.37
2022-10-20T15:56:49.600Z,23.03
2022-10-20T15:59:17.228Z,22.97
2022-10-20T16:01:47.471Z,23.83
2022-10-20T16:04:23.588Z,23.17
2022-10-20T16:06:53.096Z,24.40
2022-10-20T16:09:21.413Z,23.67
2022-10-20T16:11:49.581Z,23.17
2022-10-20T16:14:17.112Z,22.90
2022-10-20T16:16:47.725Z,24.07
2022-10-20T16:19:15.387Z,22.73
2022-10-20T16:21:42.971Z,23.17
2022-10-20T16:24:11.417Z,23.57
2022-10-20T16:26:38.989Z,22.77
2022-10-20T16:29:06.538Z,22.77
2022-10-20T16:31:34.161Z,22.67
2022-10-20T16:34:01.883Z,22.47
2022-10-20T16:36:29.622Z,23.43
2022-10-20T16:39:01.022Z,22.83
2022-10-20T16:41:28.569Z,22.13
2022-10-20T16:44:00.123Z,22.30
2022-10-20T16:46:28.810Z,23.07
2022-10-20T16:48:57.142Z,22.73
2022-10-20T16:51:24.777Z,23.33
2022-10-20T16:53:55.133Z,23.60
2022-10-20T16:56:24.942Z,22.27
2022-10-20T16:58:52.602Z,24.10
2022-10-20T17:01:22.533Z,23.83
2022-10-20T17:03:54.646Z,22.13
2022-10-20T17:06:25.172Z,23.73
2022-10-20T17:08:53.836Z,23.27
2022-10-20T17:11:24.911Z,22.97
2022-10-20T17:13:53.657Z,23.30
2022-10-20T17:16:26.202Z,23.07
2022-10-20T17:18:57.794Z,24.27
2022-10-20T17:21:25.899Z,23.17
2022-10-20T17:23:53.583Z,22.93
2022-10-20T17:26:23.352Z,22.37
2022-10-20T17:28:53.751Z,22.60
2022-10-20T17:31:22.515Z,23.17
2022-10-20T17:33:51.431Z,23.23
2022-10-20T17:36:28.554Z,22.23
2022-10-20T17:39:01.947Z,22.87
2022-10-20T17:41:30.275Z,22.27
2022-10-20T17:44:02.739Z,21.93
2022-10-20T17:46:30.672Z,23.03
2022-10-20T17:48:58.277Z,22.83
2022-10-20T17:51:30.400Z,24.97
2022-10-20T17:54:01.167Z,23.93
2022-10-20T17:56:34.342Z,23.97
2022-10-20T17:59:03.097Z,23.37
2022-10-20T18:01:35.509Z,21.80
2022-10-20T18:04:07.425Z,22.33
2022-10-20T18:06:36.224Z,22.40
2022-10-20T18:09:07.456Z,22.47
2022-10-20T18:11:35.651Z,22.20
2022-10-20T18:14:03.862Z,22.90
2022-10-20T18:16:36.696Z,21.80
2022-10-20T18:19:04.334Z,21.87
2022-10-20T18:21:32.336Z,22.10
2022-10-20T18:24:02.860Z,21.80
2022-10-20T18:26:32.890Z,22.67
2022-10-20T18:29:01.866Z,22.77
2022-10-20T18:31:32.201Z,22.30
2022-10-20T18:34:04.427Z,22.30
2022-10-20T18:36:41.972Z,21.97
2022-10-20T18:39:14.424Z,22.13
2022-10-20T18:41:43.776Z,21.70
2022-10-20T18:44:14.373Z,22.33
2022-10-20T18:46:42.768Z,22.43
2022-10-20T18:49:13.042Z,22.17
2022-10-20T18:51:41.099Z,22.37
2022-10-20T18:54:09.417Z,22.10
2022-10-20T18:56:46.043Z,22.53
2022-10-20T18:59:16.197Z,22.97
2022-10-20T19:01:44.193Z,23.47
2022-10-20T19:04:12.558Z,22.60
2022-10-20T19:06:42.491Z,23.17
2022-10-20T19:09:15.765Z,23.33
2022-10-20T19:11:44.487Z,21.57
2022-10-20T19:14:13.009Z,22.27
2022-10-20T19:16:43.426Z,22.83
2022-10-20T19:19:13.565Z,22.73
2022-10-20T19:21:41.712Z,22.10
2022-10-20T19:24:17.462Z,21.23
2022-10-20T19:27:02.045Z,23.20
2022-10-20T19:29:37.941Z,22.93
2022-10-20T19:32:06.582Z,23.27
2022-10-20T19:34:39.555Z,22.17
2022-10-20T19:37:07.575Z,22.80
2022-10-20T19:39:38.513Z,23.00
2022-10-20T19:42:10.666Z,22.70
2022-10-20T19:44:38.544Z,23.13
2022-10-20T19:47:09.750Z,22.33
2022-10-20T19:49:37.707Z,23.07
2022-10-20T19:52:06.496Z,24.10
2022-10-20T19:54:34.478Z,23.80
2022-10-20T19:57:02.065Z,23.03
2022-10-20T19:59:29.751Z,24.30
2022-10-20T20:01:57.552Z,23.70
2022-10-20T20:04:25.141Z,22.97
2022-10-20T20:06:52.757Z,24.03
2022-10-20T20:09:20.350Z,24.40
2022-10-20T20:11:48.065Z,23.37
2022-10-20T20:14:18.093Z,23.20
2022-10-20T20:16:46.894Z,25.53
2022-10-20T20:19:17.294Z,25.23
2022-10-20T20:21:45.898Z,25.13
2022-10-20T20:24:14.704Z,23.90
2022-10-20T20:26:44.361Z,23.13
2022-10-20T20:29:12.157Z,24.37
2022-10-20T20:31:39.799Z,22.67
2022-10-20T20:34:07.636Z,23.07
2022-10-20T20:36:35.198Z,23.47
2022-10-20T20:39:03.065Z,23.77
2022-10-20T20:41:32.299Z,23.70
2022-10-20T20:44:04.182Z,23.67
2022-10-20T20:46:36.151Z,23.97
2022-10-20T20:49:04.013Z,24.13
2022-10-20T20:51:33.887Z,24.57
2022-10-20T20:54:05.459Z,24.17
2022-10-20T20:56:33.055Z,24.50
2022-10-20T20:59:00.693Z,25.57
2022-10-20T21:01:31.819Z,24.43
2022-10-20T21:04:05.644Z,24.80
2022-10-20T21:07:01.351Z,19.02
2022-10-20T21:09:30.258Z,23.53
2022-10-20T21:11:58.019Z,24.87
2022-10-20T21:14:25.868Z,23.60
2022-10-20T21:16:53.578Z,24.80
2022-10-20T21:19:21.902Z,24.30
2022-10-20T21:21:57.994Z,24.17
2022-10-20T21:24:28.635Z,23.37
2022-10-20T21:26:56.728Z,24.10
2022-10-20T21:29:24.575Z,25.00
2022-10-20T21:31:52.170Z,24.43
2022-10-20T21:34:19.748Z,24.60
2022-10-20T21:36:47.325Z,25.33
2022-10-20T21:39:17.891Z,24.27
2022-10-20T21:41:46.450Z,23.60
2022-10-20T21:44:14.999Z,24.63
2022-10-20T21:46:49.151Z,25.43
2022-10-20T21:49:19.176Z,25.83
2022-10-20T21:51:50.033Z,25.30
2022-10-20T21:56:47.922Z,24.33
2022-10-20T21:59:29.976Z,24.57
2022-10-20T22:02:00.311Z,23.60
2022-10-20T22:04:29.298Z,24.17
2022-10-20T22:06:59.145Z,24.80
2022-10-20T22:09:26.865Z,23.53
2022-10-20T22:11:56.514Z,24.90
2022-10-20T22:14:24.404Z,24.90
2022-10-20T22:16:54.680Z,24.83
2022-10-20T22:19:23.979Z,24.73
2022-10-20T22:21:53.394Z,25.23
2022-10-20T22:24:22.032Z,26.13
2022-10-20T22:27:06.239Z,25.28
2022-10-20T22:29:36.257Z,25.67
2022-10-20T22:32:04.044Z,25.20
2022-10-20T22:34:31.689Z,24.40
2022-10-20T22:37:01.979Z,25.73
2022-10-20T22:39:29.600Z,25.30
2022-10-20T22:41:57.201Z,25.03
2022-10-20T22:44:24.807Z,25.57
2022-10-20T22:46:52.396Z,24.77
2022-10-20T22:49:19.939Z,24.67
2022-10-20T22:51:47.492Z,25.70
2022-10-20T22:54:15.089Z,26.13
2022-10-20T22:56:42.723Z,25.83
2022-10-20T22:59:10.627Z,25.23
2022-10-20T23:01:38.335Z,24.97
2022-10-20T23:04:06.012Z,24.77
2022-10-20T23:06:33.639Z,24.80
2022-10-20T23:09:01.260Z,26.13
2022-10-20T23:11:31.939Z,25.37
2022-10-20T23:13:59.621Z,26.73
2022-10-20T23:16:30.208Z,25.27
2022-10-20T23:18:57.896Z,27.07
2022-10-20T23:21:26.390Z,26.00
2022-10-20T23:23:54.756Z,27.17
2022-10-20T23:26:22.355Z,25.73
2022-10-20T23:28:49.994Z,26.50
2022-10-20T23:31:21.954Z,26.20
2022-10-20T23:33:55.218Z,26.67
2022-10-20T23:36:23.665Z,25.87
2022-10-20T23:38:51.586Z,26.33
2022-10-20T23:41:19.454Z,26.70
2022-10-20T23:43:47.029Z,26.90
2022-10-20T23:46:14.887Z,27.87
2022-10-20T23:48:42.544Z,27.57
2022-10-20T23:51:11.123Z,27.20
2022-10-20T23:53:38.702Z,29.13
2022-10-20T23:56:06.601Z,27.67
2022-10-20T23:58:34.743Z,28.93
